Time;durP1;ratioP1;P1;durP2;ratioP2;P2;SDS_P1;SDS_P2;PMS_P1;PMS_P2;Temp;Humidity;BMP_temperature;BMP_pressure;BME280_temperature;BME280_humidity;BME280_pressure;Samples;Min_cycle;Max_cycle;Signal;HPM_P1;HPM_P2
2023/02/04 00:02:00;;;;;;;;;;;;;;;5.03;100.00;101111.09;4918604;29;19941;-82
2023/02/04 00:04:26;;;;;;;;;;;;;;;5.07;100.00;101117.22;4936475;29;19923;-85
2023/02/04 00:06:59;;;;;;;;;;;;;;;5.15;100.00;101107.59;4918439;29;19981;-86
2023/02/04 00:09:31;;;;;;;;;;;;;;;5.16;100.00;101117.25;4935721;29;20446;-86
2023/02/04 00:11:56;;;;;;;;;;;;;;;5.19;100.00;101119.00;4917299;29;19974;-87
2023/02/04 00:14:29;;;;;;;;;;;;;;;5.16;100.00;101119.88;4934960;29;19934;-93
2023/02/04 00:16:54;;;;;;;;;;;;;;;5.14;100.00;101119.00;4919551;29;19923;-87
2023/02/04 00:19:23;;;;;;;;;;;;;;;5.13;100.00;101113.75;4932376;29;19914;-89
2023/02/04 00:21:50;;;;;;;;;;;;;;;5.20;100.00;101111.13;4940818;29;19919;-87
2023/02/04 00:24:15;;;;;;;;;;;;;;;5.21;100.00;101118.13;4924310;29;19922;-88
2023/02/04 00:26:41;;;;;;;;;;;;;;;5.23;100.00;101118.13;4918982;29;19919;-86
2023/02/04 00:29:06;;;;;;;;;;;;;;;5.22;100.00;101112.00;4920240;29;20350;-85
2023/02/04 00:31:34;;;;;;;;;;;;;;;5.24;100.00;101118.13;4921438;29;19927;-91
2023/02/04 00:33:59;;;;;;;;;;;;;;;5.26;100.00;101119.03;4939270;29;20351;-84
2023/02/04 00:36:29;;;;;;;;;;;;;;;5.27;100.00;101114.63;4939154;29;19919;-85
2023/02/04 00:39:00;;;;;;;;;;;;;;;5.28;100.00;101111.09;4937861;29;19919;-87
2023/02/04 00:41:25;;;;;;;;;;;;;;;5.27;100.00;101112.88;4928567;29;19919;-86
2023/02/04 00:43:53;;;;;;;;;;;;;;;5.26;100.00;101111.13;4938896;29;20263;-90
2023/02/04 00:46:19;;;;;;;;;;;;;;;5.28;100.00;101116.34;4937733;29;19926;-86
2023/02/04 00:49:09;;;;;;;;;;;;;;;5.30;100.00;101114.63;4938930;29;19919;-89
2023/02/04 00:51:34;;;;;;;;;;;;;;;5.32;100.00;101112.88;4938221;29;19945;-85
2023/02/04 00:53:59;;;;;;;;;;;;;;;5.32;100.00;101112.00;4920709;29;20390;-87
2023/02/04 00:56:25;;;;;;;;;;;;;;;5.31;100.00;101113.72;4915070;29;20330;-86
2023/02/04 00:58:53;;;;;;;;;;;;;;;5.33;100.00;101116.38;4938738;29;19923;-89
2023/02/04 01:01:18;;;;;;;;;;;;;;;5.33;100.00;101113.72;4937346;29;19922;-86
2023/02/04 01:03:44;;;;;;;;;;;;;;;5.36;100.00;101113.72;4938500;29;19961;-86
2023/02/04 01:06:10;;;;;;;;;;;;;;;5.37;100.00;101110.25;4920271;29;19923;-85
2023/02/04 01:08:35;;;;;;;;;;;;;;;5.36;100.00;101114.63;4938319;29;19923;-86
2023/02/04 01:11:01;;;;;;;;;;;;;;;5.38;100.00;101101.50;4937666;29;20271;-85
2023/02/04 01:13:28;;;;;;;;;;;;;;;5.34;100.00;101105.84;4929855;29;20294;-85
2023/02/04 01:15:54;;;;;;;;;;;;;;;5.44;100.00;101096.19;4919320;29;19970;-85
2023/02/04 01:18:19;;;;;;;;;;;;;;;5.48;100.00;101092.72;4919436;29;20308;-84
2023/02/04 01:20:44;;;;;;;;;;;;;;;5.45;100.00;101097.97;4902447;29;19966;-87
2023/02/04 01:23:10;;;;;;;;;;;;;;;5.45;100.00;101104.09;4918164;29;19920;-84
2023/02/04 01:25:37;;;;;;;;;;;;;;;5.49;100.00;101104.09;4901623;29;20270;-85
2023/02/04 01:28:03;;;;;;;;;;;;;;;5.49;100.00;101118.13;4919184;29;19954;-85
2023/02/04 01:30:28;;;;;;;;;;;;;;;5.51;100.00;101113.75;4919328;29;20413;-86
2023/02/04 01:32:53;;;;;;;;;;;;;;;5.52;100.00;101110.25;4918873;29;19919;-85
2023/02/04 01:35:19;;;;;;;;;;;;;;;5.53;100.00;101117.22;4919421;29;19919;-84
2023/02/04 01:37:44;;;;;;;;;;;;;;;5.56;100.00;101104.09;4919090;29;20021;-84
2023/02/04 01:40:17;;;;;;;;;;;;;;;5.57;100.00;101105.84;4919177;29;19919;-86
2023/02/04 03:28:20;;;;;;;;;;;;;;;5.97;100.00;101112.81;5509439;23;20459;-86
2023/02/04 03:30:52;;;;;;;;;;;;;;;5.96;100.00;101117.19;4957523;28;19926;-86
2023/02/04 03:33:17;;;;;;;;;;;;;;;5.99;100.00;101119.81;4974593;28;19918;-86
2023/02/04 03:35:43;;;;;;;;;;;;;;;6.00;100.00;101108.41;4957581;28;19944;-85
2023/02/04 03:38:08;;;;;;;;;;;;;;;5.98;100.00;101112.81;4974696;28;19921;-85
2023/02/04 03:40:33;;;;;;;;;;;;;;;6.00;100.00;101115.44;4974447;28;20357;-85
2023/02/04 03:42:58;;;;;;;;;;;;;;;6.03;100.00;101119.81;4973394;28;19925;-85
2023/02/04 03:45:23;;;;;;;;;;;;;;;6.04;100.00;101124.19;4974599;28;19965;-84
2023/02/04 03:47:49;;;;;;;;;;;;;;;6.05;100.00;101124.19;4974576;28;20407;-85
2023/02/04 03:50:14;;;;;;;;;;;;;;;6.05;100.00;101132.09;4974506;28;19914;-84
2023/02/04 03:52:39;;;;;;;;;;;;;;;6.08;100.00;101139.09;4957008;28;20057;-84
2023/02/04 03:55:05;;;;;;;;;;;;;;;6.07;100.00;101140.84;4957050;28;19922;-85
2023/02/04 03:57:30;;;;;;;;;;;;;;;6.08;100.00;101149.59;4973161;28;20305;-88
2023/02/04 03:59:55;;;;;;;;;;;;;;;6.06;100.00;101143.47;4974638;28;19926;-87
2023/02/04 04:02:21;;;;;;;;;;;;;;;6.07;100.00;101148.75;4974420;28;20347;-88
2023/02/04 04:04:46;;;;;;;;;;;;;;;6.09;100.00;101154.88;4974434;28;19918;-86
2023/02/04 04:07:11;;;;;;;;;;;;;;;6.13;100.00;101161.03;4974529;28;20274;-90
2023/02/04 04:09:37;;;;;;;;;;;;;;;6.14;100.00;101162.75;4957239;28;20001;-89
2023/02/04 04:12:03;;;;;;;;;;;;;;;6.14;100.00;101171.53;4955831;28;20325;-90
2023/02/04 04:14:28;;;;;;;;;;;;;;;6.15;100.00;101172.41;4974349;28;20401;-91
2023/02/04 04:16:53;;;;;;;;;;;;;;;6.15;100.00;101175.03;4974201;28;19944;-90
2023/02/04 04:19:19;;;;;;;;;;;;;;;6.15;100.00;101170.66;4957349;28;19941;-89
2023/02/04 04:21:44;;;;;;;;;;;;;;;6.16;100.00;101168.91;4974414;28;19918;-91
2023/02/04 04:24:10;;;;;;;;;;;;;;;6.18;100.00;101172.41;4972938;28;19918;-90
2023/02/04 04:26:35;;;;;;;;;;;;;;;6.20;100.00;101172.41;4974224;28;19923;-87
2023/02/04 04:29:00;;;;;;;;;;;;;;;6.18;100.00;101165.38;4972806;28;19923;-89
2023/02/04 04:31:26;;;;;;;;;;;;;;;6.22;100.00;101166.22;4973989;28;20357;-88
2023/02/04 04:33:51;;;;;;;;;;;;;;;6.24;100.00;101184.66;4974130;28;20318;-87
2023/02/04 04:36:16;;;;;;;;;;;;;;;6.26;100.00;101188.19;4956792;28;19922;-87
2023/02/04 04:38:41;;;;;;;;;;;;;;;6.28;100.00;101197.81;4956726;28;19929;-87
2023/02/04 04:41:07;;;;;;;;;;;;;;;6.32;100.00;101196.06;4956675;28;19919;-87
2023/02/04 04:43:32;;;;;;;;;;;;;;;6.28;100.00;101182.00;4955358;28;20009;-87
2023/02/04 04:45:57;;;;;;;;;;;;;;;6.29;100.00;101186.41;4972854;28;20309;-87
2023/02/04 04:48:23;;;;;;;;;;;;;;;6.29;100.00;101199.56;4956650;28;19918;-87
2023/02/04 04:50:49;;;;;;;;;;;;;;;6.31;100.00;101197.81;4973915;28;19953;-87
2023/02/04 04:53:14;;;;;;;;;;;;;;;6.28;100.00;101191.69;4973928;28;19992;-87
2023/02/04 04:55:39;;;;;;;;;;;;;;;6.30;100.00;101197.81;4956369;28;19929;-86
2023/02/04 04:58:06;;;;;;;;;;;;;;;6.32;100.00;101199.56;4972685;28;19924;-87
2023/02/04 05:00:31;;;;;;;;;;;;;;;6.31;100.00;101203.06;4973892;28;19933;-87
2023/02/04 05:02:56;;;;;;;;;;;;;;;6.30;100.00;101198.69;4973939;28;19961;-89
2023/02/04 05:05:22;;;;;;;;;;;;;;;6.32;100.00;101206.59;4977141;28;19968;-86
2023/02/04 05:07:47;;;;;;;;;;;;;;;6.33;100.00;101210.97;4977278;28;19929;-86
2023/02/04 05:10:12;;;;;;;;;;;;;;;6.32;100.00;101201.34;4959897;28;20373;-86
2023/02/04 05:12:37;;;;;;;;;;;;;;;6.33;100.00;101205.69;4958504;28;19972;-86
2023/02/04 08:50:55;;;;;;;;;;;;;;;6.83;100.00;101440.88;4952304;29;20349;-89
2023/02/04 08:53:20;;;;;;;;;;;;;;;6.82;100.00;101436.50;4940764;29;19922;-88
2023/02/04 08:56:09;;;;;;;;;;;;;;;6.82;100.00;101447.91;4941280;29;19926;-94
2023/02/04 09:02:30;;;;;;;;;;;;;;;6.81;100.00;101453.19;4941916;29;19918;-89
2023/02/04 09:05:06;;;;;;;;;;;;;;;;;;;;;
2023/02/04 09:11:26;;;;;;;;;;;;;;;;;;;;;
2023/02/04 09:13:59;;;;;;;;;;;;;;;6.86;100.00;101483.03;4869056;29;20298;-89
2023/02/04 09:16:47;;;;;;;;;;;;;;;6.85;100.00;101468.13;4938688;29;19965;-88
2023/02/04 09:29:25;;;;;;;;;;;;;;;;;;;;;
2023/02/04 09:32:05;;;;;;;;;;;;;;;;;;;;;
2023/02/04 09:34:54;;;;;;;;;;;;;;;6.89;100.00;101477.75;5078444;23;19926;-90
2023/02/04 09:37:23;;;;;;;;;;;;;;;6.88;100.00;101473.41;4957615;28;19922;-86
2023/02/04 09:46:32;;;;;;;;;;;;;;;;;;;;;
2023/02/04 09:49:59;;;;;;;;;;;;;;;;;;;;;
2023/02/04 09:52:50;;;;;;;;;;;;;;;;;;;;;
2023/02/04 09:55:30;;;;;;;;;;;;;;;6.90;100.00;101487.44;4934422;29;19919;-89
2023/02/04 10:01:14;;;;;;;;;;;;;;;6.91;100.00;101499.75;4894038;29;19923;-88
2023/02/04 10:03:45;;;;;;;;;;;;;;;6.91;100.00;101502.38;4915954;29;20266;-90
2023/02/04 10:07:02;;;;;;;;;;;;;;;6.91;100.00;101505.88;4924383;29;19919;-90
2023/02/04 10:09:22;;;;;;;;;;;;;;;6.91;100.00;101507.66;4933582;29;20362;-87
2023/02/04 10:11:49;;;;;;;;;;;;;;;6.93;100.00;101503.25;4937244;29;20445;-88
2023/02/04 10:14:18;;;;;;;;;;;;;;;6.93;100.00;101505.88;4958519;23;19934;-88
2023/02/04 10:19:52;;;;;;;;;;;;;;;6.94;100.00;101514.66;5042237;23;20419;-89
2023/02/04 10:24:55;;;;;;;;;;;;;;;6.96;100.00;101523.47;5304066;23;19953;-88
2023/02/04 10:27:22;;;;;;;;;;;;;;;6.94;100.00;101526.09;4935294;29;19977;-89
2023/02/04 10:30:10;;;;;;;;;;;;;;;6.92;100.00;101527.84;4938336;28;20328;-89
2023/02/04 10:32:48;;;;;;;;;;;;;;;;;;;;;
2023/02/04 10:35:18;;;;;;;;;;;;;;;6.96;100.00;101518.19;4956407;28;19929;-89
2023/02/04 10:41:06;;;;;;;;;;;;;;;6.98;100.00;101516.44;4932911;29;19945;-89
2023/02/04 10:46:51;;;;;;;;;;;;;;;6.98;100.00;101514.66;4956435;29;19969;-88
2023/02/04 10:49:30;;;;;;;;;;;;;;;7.01;100.00;101506.75;4953693;29;19919;-90
2023/02/04 10:54:42;;;;;;;;;;;;;;;6.97;100.00;101504.97;5048821;23;19948;-90
2023/02/04 10:57:16;;;;;;;;;;;;;;;6.98;100.00;101505.88;4939199;29;19928;-86
2023/02/04 10:59:58;;;;;;;;;;;;;;;6.98;100.00;101506.75;4955783;29;20408;-89
2023/02/04 11:02:26;;;;;;;;;;;;;;;6.97;100.00;101497.06;4937340;29;19954;-89
2023/02/04 11:05:01;;;;;;;;;;;;;;;7.00;100.00;101499.72;4954682;29;19930;-92
2023/02/04 11:07:32;;;;;;;;;;;;;;;7.01;100.00;101501.47;4955758;29;19923;-90
2023/02/04 11:13:22;;;;;;;;;;;;;;;6.97;100.00;101494.44;4982031;23;19948;-90
2023/02/04 11:16:07;;;;;;;;;;;;;;;7.00;100.00;101501.47;4956951;28;19969;-86
2023/02/04 11:21:16;;;;;;;;;;;;;;;7.02;100.00;101503.25;5464958;23;20371;-89
2023/02/04 11:23:44;;;;;;;;;;;;;;;7.03;100.00;101498.84;4936526;29;20392;-88
2023/02/04 11:31:24;;;;;;;;;;;;;;;7.03;100.00;101498.84;5615466;23;19930;-90
2023/02/04 11:34:11;;;;;;;;;;;;;;;7.04;100.00;101497.97;4956301;28;19922;-88
2023/02/04 11:39:43;;;;;;;;;;;;;;;7.05;100.00;101503.25;5214941;23;19930;-91
2023/02/04 11:42:32;;;;;;;;;;;;;;;7.13;100.00;101503.22;4928942;23;19927;-89
2023/02/04 11:45:07;;;;;;;;;;;;;;;7.15;100.00;101503.22;4912383;29;19973;-88
2023/02/04 11:47:52;;;;;;;;;;;;;;;;;;;;;
2023/02/04 11:50:29;;;;;;;;;;;;;;;7.15;100.00;101497.94;4936141;29;19926;-88
2023/02/04 11:53:17;;;;;;;;;;;;;;;7.12;100.00;101503.25;4917598;29;19930;-87
2023/02/04 11:55:45;;;;;;;;;;;;;;;7.11;100.00;101504.97;4917715;29;19930;-88
2023/02/04 12:01:17;;;;;;;;;;;;;;;7.13;100.00;101505.84;4917278;29;19923;-88
2023/02/04 12:03:59;;;;;;;;;;;;;;;7.11;100.00;101501.47;4909546;29;19930;-87
2023/02/04 12:06:47;;;;;;;;;;;;;;;7.14;100.00;101509.38;4932364;29;19925;-89
2023/02/04 12:09:18;;;;;;;;;;;;;;;7.14;100.00;101506.75;4918497;29;20013;-88
2023/02/04 12:20:58;;;;;;;;;;;;;;;7.14;100.00;101497.06;4976884;28;20391;-89
2023/02/04 12:23:28;;;;;;;;;;;;;;;7.16;100.00;101491.78;4950554;28;19918;-88
2023/02/04 12:29:48;;;;;;;;;;;;;;;7.17;100.00;101501.47;4896230;29;19923;-89
2023/02/04 12:34:58;;;;;;;;;;;;;;;;;;;;;
2023/02/04 12:43:05;;;;;;;;;;;;;;;7.14;100.00;101490.94;4980458;23;20305;-89
2023/02/04 12:45:31;;;;;;;;;;;;;;;7.15;100.00;101500.56;4939685;29;19922;-87
2023/02/04 12:53:34;;;;;;;;;;;;;;;7.17;100.00;101493.56;4865429;23;20381;-87
2023/02/04 13:08:56;;;;;;;;;;;;;;;7.19;100.00;101490.03;4899011;29;19930;-90
2023/02/04 13:11:17;;;;;;;;;;;;;;;7.21;100.00;101490.03;4990123;28;19922;-86
2023/02/04 13:13:54;;;;;;;;;;;;;;;7.20;100.00;101490.94;4995889;28;19917;-90
2023/02/04 13:22:35;;;;;;;;;;;;;;;7.21;100.00;101495.28;5636978;23;19930;-88
2023/02/04 13:25:43;;;;;;;;;;;;;;;7.20;100.00;101496.19;4970682;28;20510;-92
2023/02/04 13:28:23;;;;;;;;;;;;;;;7.21;100.00;101492.66;4967442;28;19933;-90
2023/02/04 13:31:21;;;;;;;;;;;;;;;7.22;100.00;101491.78;4994753;28;19922;-88
2023/02/04 13:36:59;;;;;;;;;;;;;;;;;;;;;
2023/02/04 13:42:48;;;;;;;;;;;;;;;7.22;100.00;101494.44;5039194;23;20384;-89
2023/02/04 13:45:19;;;;;;;;;;;;;;;7.22;100.00;101499.69;4973996;28;19926;-90
2023/02/04 13:47:46;;;;;;;;;;;;;;;7.21;100.00;101495.28;4957769;28;19999;-88
2023/02/04 13:50:59;;;;;;;;;;;;;;;7.25;100.00;101497.06;4975998;28;19922;-88
2023/02/04 13:53:30;;;;;;;;;;;;;;;7.23;100.00;101509.38;4977083;28;20365;-86
2023/02/04 14:15:46;;;;;;;;;;;;;;;7.26;100.00;101502.34;4827860;29;20293;-87
2023/02/04 14:18:27;;;;;;;;;;;;;;;7.24;100.00;101498.84;4860894;29;19935;-89
2023/02/04 14:27:57;;;;;;;;;;;;;;;7.28;100.00;101500.56;4878176;29;19964;-88
2023/02/04 14:30:41;;;;;;;;;;;;;;;;;;;;;
2023/02/04 14:33:14;;;;;;;;;;;;;;;7.27;100.00;101501.47;4958028;28;20649;-89
2023/02/04 14:35:39;;;;;;;;;;;;;;;7.28;100.00;101504.97;4956464;28;20360;-87
2023/02/04 14:38:10;;;;;;;;;;;;;;;7.28;100.00;101499.69;4974460;28;19961;-86
2023/02/04 14:40:51;;;;;;;;;;;;;;;7.27;100.00;101504.09;4974387;28;19988;-89
2023/02/04 14:45:44;;;;;;;;;;;;;;;7.30;100.00;101504.97;4943593;23;20439;-87
2023/02/04 14:48:20;;;;;;;;;;;;;;;7.31;100.00;101502.31;4932719;29;20262;-89
2023/02/04 14:50:46;;;;;;;;;;;;;;;7.31;100.00;101502.31;4918432;29;19922;-86
2023/02/04 14:53:17;;;;;;;;;;;;;;;7.32;100.00;101490.88;4936053;29;19922;-87
2023/02/04 14:55:45;;;;;;;;;;;;;;;7.31;100.00;101494.41;4936048;29;19918;-86
2023/02/04 14:58:10;;;;;;;;;;;;;;;7.32;100.00;101496.16;4919038;29;19923;-86
2023/02/04 15:00:35;;;;;;;;;;;;;;;7.34;100.00;101498.78;4918838;29;20061;-84
2023/02/04 15:03:00;;;;;;;;;;;;;;;7.32;100.00;101493.50;4933578;29;19923;-84
2023/02/04 15:05:26;;;;;;;;;;;;;;;7.33;100.00;101497.06;4934851;29;19933;-85
2023/02/04 15:07:51;;;;;;;;;;;;;;;7.32;100.00;101496.16;4930642;29;20275;-85
2023/02/04 15:10:17;;;;;;;;;;;;;;;7.33;100.00;101497.91;4933633;29;20673;-85
2023/02/04 15:12:42;;;;;;;;;;;;;;;7.34;100.00;101501.44;4919408;29;20410;-88
2023/02/04 15:15:07;;;;;;;;;;;;;;;7.34;100.00;101504.06;4935974;29;19927;-85
2023/02/04 15:17:35;;;;;;;;;;;;;;;7.33;100.00;101503.19;4931657;29;19923;-84
2023/02/04 15:20:07;;;;;;;;;;;;;;;7.35;100.00;101497.91;4916937;29;19925;-83
2023/02/04 15:22:32;;;;;;;;;;;;;;;7.35;100.00;101505.81;4936136;29;20310;-83
2023/02/04 15:24:58;;;;;;;;;;;;;;;7.37;100.00;101514.59;4935281;29;19975;-85
2023/02/04 15:27:24;;;;;;;;;;;;;;;7.36;100.00;101519.00;4934340;29;19946;-85
2023/02/04 15:29:50;;;;;;;;;;;;;;;7.36;100.00;101513.75;4935553;29;19922;-86
2023/02/04 15:32:21;;;;;;;;;;;;;;;7.35;100.00;101511.97;4935998;29;20043;-89
2023/02/04 15:34:46;;;;;;;;;;;;;;;7.35;100.00;101514.59;4933467;29;20397;-86
2023/02/04 15:37:21;;;;;;;;;;;;;;;7.36;100.00;101518.16;4936149;29;19998;-85
2023/02/04 15:39:50;;;;;;;;;;;;;;;7.39;100.00;101523.41;4934823;29;19969;-86
2023/02/04 15:42:15;;;;;;;;;;;;;;;7.39;100.00;101526.06;4934864;29;19977;-85
2023/02/04 15:44:40;;;;;;;;;;;;;;;7.37;100.00;101530.44;4935909;29;19922;-87
2023/02/04 15:47:05;;;;;;;;;;;;;;;7.38;100.00;101529.56;4934983;29;20397;-87
2023/02/04 15:49:33;;;;;;;;;;;;;;;7.39;100.00;101524.28;4918050;29;19915;-86
2023/02/04 15:52:02;;;;;;;;;;;;;;;7.39;100.00;101529.56;4933951;29;19950;-86
2023/02/04 15:54:27;;;;;;;;;;;;;;;7.39;100.00;101533.97;4918945;29;19918;-86
2023/02/04 15:56:52;;;;;;;;;;;;;;;7.40;100.00;101536.59;4935980;29;20386;-87
2023/02/04 15:59:18;;;;;;;;;;;;;;;7.40;100.00;101536.59;4935421;29;19974;-86
2023/02/04 16:01:43;;;;;;;;;;;;;;;7.40;100.00;101536.59;4934300;29;19922;-86
2023/02/04 16:04:08;;;;;;;;;;;;;;;7.40;100.00;101527.78;4934783;29;19974;-87
2023/02/04 16:06:34;;;;;;;;;;;;;;;7.41;100.00;101532.19;4933912;29;20017;-87
2023/02/04 16:09:03;;;;;;;;;;;;;;;7.40;100.00;101539.25;4935118;29;19923;-87
2023/02/04 16:11:29;;;;;;;;;;;;;;;7.40;100.00;101540.97;4934019;29;19929;-87
2023/02/04 16:13:54;;;;;;;;;;;;;;;7.40;100.00;101539.25;4935910;29;19919;-86
2023/02/04 16:16:23;;;;;;;;;;;;;;;7.40;100.00;101547.16;4935841;29;19919;-91
2023/02/04 16:18:48;;;;;;;;;;;;;;;7.41;100.00;101543.59;4933922;29;19982;-86
2023/02/04 16:21:13;;;;;;;;;;;;;;;7.42;100.00;101555.94;4931341;29;19923;-86
2023/02/04 16:23:39;;;;;;;;;;;;;;;7.43;100.00;101551.53;4934429;29;19923;-85
2023/02/04 16:26:04;;;;;;;;;;;;;;;7.43;100.00;101557.66;4918235;29;20017;-87
2023/02/04 16:28:29;;;;;;;;;;;;;;;7.43;100.00;101552.38;4935131;29;20326;-87
2023/02/04 16:30:54;;;;;;;;;;;;;;;7.43;100.00;101557.66;4935770;29;19935;-86
2023/02/04 16:33:20;;;;;;;;;;;;;;;7.45;100.00;101555.91;4932826;29;19931;-86
2023/02/04 16:35:58;;;;;;;;;;;;;;;7.45;100.00;101561.19;4934277;29;19926;-91
2023/02/04 16:42:17;;;;;;;;;;;;;;;;;;;;;
2023/02/04 16:44:43;;;;;;;;;;;;;;;7.45;100.00;101555.91;4930094;29;19922;-86
2023/02/04 16:47:08;;;;;;;;;;;;;;;7.46;100.00;101556.78;4945918;29;20005;-87
2023/02/04 16:49:36;;;;;;;;;;;;;;;7.45;100.00;101561.19;4953560;29;19925;-87
2023/02/04 16:52:03;;;;;;;;;;;;;;;7.46;100.00;101567.34;4933392;29;19981;-87
2023/02/04 16:54:32;;;;;;;;;;;;;;;7.46;100.00;101572.63;4951880;29;19977;-87
2023/02/04 16:56:59;;;;;;;;;;;;;;;7.46;100.00;101576.13;4952464;29;19969;-86
2023/02/04 16:59:27;;;;;;;;;;;;;;;7.48;100.00;101575.25;4955000;28;19975;-88
2023/02/04 17:01:55;;;;;;;;;;;;;;;7.48;100.00;101577.88;4938953;29;19926;-87
2023/02/04 17:04:20;;;;;;;;;;;;;;;7.49;100.00;101583.16;4955976;29;19950;-88
2023/02/04 17:06:49;;;;;;;;;;;;;;;7.48;100.00;101593.72;4939000;29;19922;-86
2023/02/04 17:09:15;;;;;;;;;;;;;;;7.50;100.00;101586.66;4949842;29;19962;-87
2023/02/04 17:11:44;;;;;;;;;;;;;;;7.49;100.00;101592.84;4956353;29;19973;-86
2023/02/04 17:14:14;;;;;;;;;;;;;;;7.49;100.00;101592.84;4956883;29;19922;-87
2023/02/04 17:17:03;;;;;;;;;;;;;;;7.48;100.00;101591.94;4956615;29;19922;-86
2023/02/04 17:19:29;;;;;;;;;;;;;;;7.51;100.00;101593.72;4939522;29;20005;-87
2023/02/04 17:21:58;;;;;;;;;;;;;;;7.49;100.00;101595.50;4956494;28;19980;-89
2023/02/04 17:24:25;;;;;;;;;;;;;;;7.50;100.00;101602.50;4956655;29;20294;-90
2023/02/04 17:26:50;;;;;;;;;;;;;;;7.51;100.00;101599.00;4940651;29;20397;-87
2023/02/04 17:29:16;;;;;;;;;;;;;;;7.50;100.00;101602.50;4957664;29;19914;-87
2023/02/04 17:31:44;;;;;;;;;;;;;;;7.50;100.00;101599.84;4945269;29;19934;-87
2023/02/04 17:34:10;;;;;;;;;;;;;;;7.51;100.00;101599.00;4956353;29;19965;-87
2023/02/04 17:36:35;;;;;;;;;;;;;;;7.51;100.00;101601.63;4957386;29;19918;-86
2023/02/04 17:39:01;;;;;;;;;;;;;;;7.50;100.00;101607.78;4955983;29;19962;-87
2023/02/04 17:41:28;;;;;;;;;;;;;;;7.50;100.00;101599.84;4933453;29;20349;-87
2023/02/04 17:43:54;;;;;;;;;;;;;;;7.52;100.00;101598.13;4939975;29;19922;-87
2023/02/04 17:46:22;;;;;;;;;;;;;;;7.53;100.00;101602.50;4939416;29;20382;-88
2023/02/04 17:48:47;;;;;;;;;;;;;;;7.53;100.00;101602.50;4946811;29;19931;-87
2023/02/04 17:51:13;;;;;;;;;;;;;;;7.53;100.00;101605.13;4934231;29;20374;-88
2023/02/04 17:53:39;;;;;;;;;;;;;;;7.54;100.00;101601.63;4939834;29;19925;-89
2023/02/04 17:56:05;;;;;;;;;;;;;;;7.54;100.00;101601.63;4938733;29;19922;-87
2023/02/04 17:58:31;;;;;;;;;;;;;;;7.56;100.00;101602.50;4956262;29;19922;-87
2023/02/04 18:00:59;;;;;;;;;;;;;;;7.53;100.00;101599.84;4955667;29;20027;-88
2023/02/04 18:03:27;;;;;;;;;;;;;;;7.53;100.00;101599.84;4956080;29;19919;-88
2023/02/04 18:05:56;;;;;;;;;;;;;;;7.53;100.00;101589.31;4937971;29;19933;-88
2023/02/04 18:08:21;;;;;;;;;;;;;;;7.55;100.00;101590.22;4939533;29;20365;-88
2023/02/04 18:10:47;;;;;;;;;;;;;;;7.54;100.00;101594.59;4938710;29;19918;-87
2023/02/04 18:13:13;;;;;;;;;;;;;;;7.54;100.00;101596.34;4939731;29;19929;-88
2023/02/04 18:15:38;;;;;;;;;;;;;;;7.56;100.00;101599.84;4957009;29;19918;-88
2023/02/04 18:18:09;;;;;;;;;;;;;;;7.57;100.00;101593.72;4952901;29;19926;-88
2023/02/04 18:20:35;;;;;;;;;;;;;;;7.55;100.00;101595.47;4937196;29;19927;-87
2023/02/04 18:23:04;;;;;;;;;;;;;;;7.55;100.00;101595.47;4944046;29;20021;-88
2023/02/04 18:25:30;;;;;;;;;;;;;;;7.55;100.00;101593.72;4950277;29;20337;-88
2023/02/04 18:27:59;;;;;;;;;;;;;;;7.55;100.00;101595.47;4952102;29;19923;-87
2023/02/04 18:30:36;;;;;;;;;;;;;;;7.57;100.00;101593.72;4952422;29;19946;-90
2023/02/04 18:33:13;;;;;;;;;;;;;;;7.55;100.00;101604.25;4918448;29;19927;-87
2023/02/04 18:38:59;;;;;;;;;;;;;;;;;;;;;
2023/02/04 18:41:32;;;;;;;;;;;;;;;7.56;100.00;101606.03;4939184;29;20028;-89
2023/02/04 18:44:21;;;;;;;;;;;;;;;7.58;100.00;101611.31;4954367;29;20412;-90
2023/02/04 18:46:47;;;;;;;;;;;;;;;7.59;100.00;101605.13;4917270;29;20004;-89
2023/02/04 18:49:31;;;;;;;;;;;;;;;7.58;100.00;101603.41;4936515;29;19970;-84
2023/02/04 18:52:03;;;;;;;;;;;;;;;7.60;100.00;101602.50;4955094;29;19926;-90
2023/02/04 18:54:31;;;;;;;;;;;;;;;7.59;100.00;101600.72;4938774;29;20255;-88
2023/02/04 18:56:59;;;;;;;;;;;;;;;7.60;100.00;101606.91;4932632;29;19926;-87
2023/02/04 18:59:26;;;;;;;;;;;;;;;7.61;100.00;101608.63;4938300;29;19980;-90
2023/02/04 19:04:41;;;;;;;;;;;;;;;7.60;100.00;101606.91;4932427;29;19950;-87
2023/02/04 19:07:12;;;;;;;;;;;;;;;7.60;100.00;101622.72;4955649;29;19923;-89
2023/02/04 19:09:37;;;;;;;;;;;;;;;7.58;100.00;101608.66;4938321;29;20290;-88
2023/02/04 19:13:27;;;;;;;;;;;;;;;7.59;100.00;101615.69;4955536;29;19918;-88
2023/02/04 19:15:58;;;;;;;;;;;;;;;7.60;100.00;101614.81;4854468;29;19940;-89
2023/02/04 19:18:31;;;;;;;;;;;;;;;7.60;100.00;101617.44;4903130;29;20314;-88
2023/02/04 19:21:00;;;;;;;;;;;;;;;7.60;100.00;101614.81;4933889;29;19926;-87
2023/02/04 19:23:32;;;;;;;;;;;;;;;7.60;100.00;101614.81;4953903;28;19927;-87
2023/02/04 19:31:06;;;;;;;;;;;;;;;7.62;100.00;101607.75;5148781;23;19926;-89
2023/02/04 19:33:39;;;;;;;;;;;;;;;7.61;100.00;101598.97;4936495;29;20498;-88
2023/02/04 19:36:32;;;;;;;;;;;;;;;7.61;100.00;101612.19;4953337;28;19922;-86
2023/02/04 19:39:16;;;;;;;;;;;;;;;7.62;100.00;101608.63;4952133;29;19927;-88
2023/02/04 19:41:41;;;;;;;;;;;;;;;7.62;100.00;101610.41;4954996;29;19918;-84
2023/02/04 19:44:13;;;;;;;;;;;;;;;7.62;100.00;101613.03;4955022;29;19925;-86
2023/02/04 19:46:42;;;;;;;;;;;;;;;7.64;100.00;101616.53;4937023;29;19922;-86
2023/02/04 19:49:43;;;;;;;;;;;;;;;7.62;100.00;101613.91;4953359;29;20271;-87
2023/02/04 19:52:33;;;;;;;;;;;;;;;7.66;100.00;101617.44;4953420;29;19976;-87
2023/02/04 19:55:15;;;;;;;;;;;;;;;7.66;100.00;101611.28;4937684;29;19982;-94
2023/02/04 19:57:50;;;;;;;;;;;;;;;7.65;100.00;101613.03;4937427;29;19985;-92
2023/02/04 20:00:38;;;;;;;;;;;;;;;7.94;100.00;101609.44;4952808;29;19942;-86
2023/02/04 20:03:26;;;;;;;;;;;;;;;;;;;;;
2023/02/04 20:05:52;;;;;;;;;;;;;;;7.59;100.00;101615.69;4954249;29;19918;-88
2023/02/04 20:08:35;;;;;;;;;;;;;;;8.16;100.00;101618.19;4953684;29;20469;-85
2023/02/04 20:11:31;;;;;;;;;;;;;;;7.95;100.00;101609.44;4937362;29;19962;-89
2023/02/04 20:14:05;;;;;;;;;;;;;;;7.81;100.00;101617.38;4955172;29;20014;-94
2023/02/04 20:16:39;;;;;;;;;;;;;;;7.75;100.00;101611.25;4954020;28;20051;-91
2023/02/04 20:19:16;;;;;;;;;;;;;;;7.73;100.00;101610.41;4936288;29;19933;-90
2023/02/04 20:22:03;;;;;;;;;;;;;;;7.73;100.00;101611.25;4961327;23;19929;-90
2023/02/04 20:24:45;;;;;;;;;;;;;;;7.69;100.00;101614.81;4899052;29;19927;-93
2023/02/04 20:27:19;;;;;;;;;;;;;;;7.70;100.00;101626.22;4917519;29;20043;-90
2023/02/04 20:29:57;;;;;;;;;;;;;;;7.68;100.00;101625.38;4898789;29;20276;-92
2023/02/04 20:32:28;;;;;;;;;;;;;;;7.68;100.00;101631.50;4914872;29;20264;-92
2023/02/04 20:35:06;;;;;;;;;;;;;;;7.68;100.00;101634.16;4921004;29;19919;-84
2023/02/04 20:37:32;;;;;;;;;;;;;;;7.66;100.00;101633.28;4910294;29;19928;-85
2023/02/04 20:40:12;;;;;;;;;;;;;;;7.69;100.00;101632.38;4936147;29;19922;-90
2023/02/04 20:42:42;;;;;;;;;;;;;;;7.69;100.00;101641.19;4934979;23;19949;-89
2023/02/04 20:45:31;;;;;;;;;;;;;;;7.68;100.00;101642.06;4956872;28;20099;-91
2023/02/04 20:48:26;;;;;;;;;;;;;;;7.53;100.00;101636.78;4945939;28;19918;-88
2023/02/04 20:54:16;;;;;;;;;;;;;;;;;;;;;
2023/02/04 20:57:02;;;;;;;;;;;;;;;7.76;100.00;101640.28;4918947;23;19926;-90
2023/02/04 21:06:57;;;;;;;;;;;;;;;7.69;100.00;101645.56;4849901;29;20397;-92
2023/02/04 21:09:25;;;;;;;;;;;;;;;7.70;100.00;101648.19;4851649;29;19972;-92
2023/02/04 21:12:04;;;;;;;;;;;;;;;;;;;;;
2023/02/04 21:17:35;;;;;;;;;;;;;;;7.66;100.00;101649.09;4886619;29;20075;-91
2023/02/04 21:28:59;;;;;;;;;;;;;;;7.67;100.00;101648.19;4891006;29;19927;-89
2023/02/04 21:31:57;;;;;;;;;;;;;;;7.68;100.00;101641.19;4975180;28;19918;-93
2023/02/04 21:34:53;;;;;;;;;;;;;;;7.67;100.00;101637.66;4877891;29;19920;-91
2023/02/04 21:37:38;;;;;;;;;;;;;;;7.67;100.00;101635.00;4866514;29;19923;-88